sensor_id;sensor_type;location;lat;lon;timestamp;pressure;altitude;pressure_sealevel;temperature;humidity
76448;BME280;65284;51.040;13.722;2023-03-16T00:00:06;100494.97;;;0.30;79.66
76448;BME280;65284;51.040;13.722;2023-03-16T00:02:34;100495.88;;;0.29;79.44
76448;BME280;65284;51.040;13.722;2023-03-16T00:05:01;100497.59;;;0.30;79.70
76448;BME280;65284;51.040;13.722;2023-03-16T00:07:27;100494.03;;;0.31;79.39
76448;BME280;65284;51.040;13.722;2023-03-16T00:09:54;100494.03;;;0.31;79.40
76448;BME280;65284;51.040;13.722;2023-03-16T00:12:21;100497.59;;;0.30;79.41
76448;BME280;65284;51.040;13.722;2023-03-16T00:14:48;100494.03;;;0.31;79.46
76448;BME280;65284;51.040;13.722;2023-03-16T00:17:17;100501.88;;;0.31;79.63
76448;BME280;65284;51.040;13.722;2023-03-16T00:19:46;100497.25;;;0.36;79.34
76448;BME280;65284;51.040;13.722;2023-03-16T00:22:16;100497.09;;;0.39;79.34
76448;BME280;65284;51.040;13.722;2023-03-16T00:24:42;100500.03;;;0.33;79.42
76448;BME280;65284;51.040;13.722;2023-03-16T00:27:10;100498.59;;;0.28;79.42
76448;BME280;65284;51.040;13.722;2023-03-16T00:29:41;100498.50;;;0.29;79.54
76448;BME280;65284;51.040;13.722;2023-03-16T00:32:17;100494.03;;;0.31;79.21
76448;BME280;65284;51.040;13.722;2023-03-16T00:34:45;100505.34;;;0.32;79.30
76448;BME280;65284;51.040;13.722;2023-03-16T00:37:14;100500.28;;;0.29;79.19
76448;BME280;65284;51.040;13.722;2023-03-16T00:39:42;100499.94;;;0.35;79.03
76448;BME280;65284;51.040;13.722;2023-03-16T00:42:10;100504.66;;;0.28;79.28
76448;BME280;65284;51.040;13.722;2023-03-16T00:44:37;100504.66;;;0.28;79.11
76448;BME280;65284;51.040;13.722;2023-03-16T00:47:04;100503.72;;;0.29;79.14
76448;BME280;65284;51.040;13.722;2023-03-16T00:49:33;100511.56;;;0.29;79.48
76448;BME280;65284;51.040;13.722;2023-03-16T00:52:04;100509.56;;;0.34;78.83
76448;BME280;65284;51.040;13.722;2023-03-16T00:54:30;100505.44;;;0.30;79.23
76448;BME280;65284;51.040;13.722;2023-03-16T00:57:01;100514.94;;;0.31;79.20
76448;BME280;65284;51.040;13.722;2023-03-16T00:59:28;100509.13;;;0.26;79.03
76448;BME280;65284;51.040;13.722;2023-03-16T01:01:55;100509.44;;;0.20;79.21
76448;BME280;65284;51.040;13.722;2023-03-16T01:04:22;100518.81;;;0.24;79.24
76448;BME280;65284;51.040;13.722;2023-03-16T01:06:48;100508.38;;;0.24;79.27
76448;BME280;65284;51.040;13.722;2023-03-16T01:09:14;100515.59;;;0.19;79.27
76448;BME280;65284;51.040;13.722;2023-03-16T01:11:41;100517.44;;;0.17;79.72
76448;BME280;65284;51.040;13.722;2023-03-16T01:14:09;100521.16;;;0.13;79.29
76448;BME280;65284;51.040;13.722;2023-03-16T01:16:36;100527.38;;;0.10;79.43
76448;BME280;65284;51.040;13.722;2023-03-16T01:19:02;100529.78;;;0.15;79.28
76448;BME280;65284;51.040;13.722;2023-03-16T01:21:29;100529.06;;;0.11;79.71
76448;BME280;65284;51.040;13.722;2023-03-16T01:23:57;100533.59;;;0.08;79.57
76448;BME280;65284;51.040;13.722;2023-03-16T01:26:24;100537.22;;;0.05;79.45
76448;BME280;65284;51.040;13.722;2023-03-16T01:28:50;100546.84;;;0.05;79.51
76448;BME280;65284;51.040;13.722;2023-03-16T01:31:17;100548.81;;;-0.01;79.66
76448;BME280;65284;51.040;13.722;2023-03-16T01:33:43;100550.44;;;0.02;79.47
76448;BME280;65284;51.040;13.722;2023-03-16T01:36:12;100554.16;;;-0.02;79.51
76448;BME280;65284;51.040;13.722;2023-03-16T01:38:39;100550.75;;;-0.04;79.88
76448;BME280;65284;51.040;13.722;2023-03-16T01:41:07;100549.75;;;-0.02;79.73
76448;BME280;65284;51.040;13.722;2023-03-16T01:43:35;100551.44;;;-0.01;79.51
76448;BME280;65284;51.040;13.722;2023-03-16T01:48:39;100547.22;;;-0.03;79.22
76448;BME280;65284;51.040;13.722;2023-03-16T01:51:17;100550.75;;;-0.04;79.39
76448;BME280;65284;51.040;13.722;2023-03-16T01:53:49;100547.53;;;-0.09;79.67
76448;BME280;65284;51.040;13.722;2023-03-16T01:56:23;100548.41;;;-0.09;79.73
76448;BME280;65284;51.040;13.722;2023-03-16T01:58:52;100550.41;;;-0.14;80.12
76448;BME280;65284;51.040;13.722;2023-03-16T02:01:25;100545.34;;;-0.17;80.03
76448;BME280;65284;51.040;13.722;2023-03-16T02:04:01;100543.63;;;-0.18;79.89
76448;BME280;65284;51.040;13.722;2023-03-16T02:06:33;100549.03;;;-0.21;79.89
76448;BME280;65284;51.040;13.722;2023-03-16T02:09:00;100551.88;;;-0.26;80.37
76448;BME280;65284;51.040;13.722;2023-03-16T02:11:27;100549.03;;;-0.21;80.37
76448;BME280;65284;51.040;13.722;2023-03-16T02:13:55;100542.28;;;-0.25;80.96
76448;BME280;65284;51.040;13.722;2023-03-16T02:16:25;100549.50;;;-0.30;80.87
76448;BME280;65284;51.040;13.722;2023-03-16T02:18:51;100546.19;;;-0.34;80.78
76448;BME280;65284;51.040;13.722;2023-03-16T02:21:29;100543.69;;;-0.35;81.20
76448;BME280;65284;51.040;13.722;2023-03-16T02:24:00;100545.38;;;-0.34;80.83
76448;BME280;65284;51.040;13.722;2023-03-16T02:26:33;100549.66;;;-0.33;80.78
76448;BME280;65284;51.040;13.722;2023-03-16T02:29:14;100544.28;;;-0.30;80.87
76448;BME280;65284;51.040;13.722;2023-03-16T02:31:43;100546.47;;;-0.38;80.87
76448;BME280;65284;51.040;13.722;2023-03-16T02:34:11;100553.50;;;-0.40;80.75
76448;BME280;65284;51.040;13.722;2023-03-16T02:36:38;100550.28;;;-0.46;81.38
76448;BME280;65284;51.040;13.722;2023-03-16T02:39:06;100553.97;;;-0.50;81.57
76448;BME280;65284;51.040;13.722;2023-03-16T02:41:33;100548.91;;;-0.53;81.41
76448;BME280;65284;51.040;13.722;2023-03-16T02:44:08;100554.13;;;-0.53;81.69
76448;BME280;65284;51.040;13.722;2023-03-16T02:46:39;100545.53;;;-0.55;81.17
76448;BME280;65284;51.040;13.722;2023-03-16T02:49:20;100551.66;;;-0.56;81.44
76448;BME280;65284;51.040;13.722;2023-03-16T02:51:50;100554.19;;;-0.54;81.19
76448;BME280;65284;51.040;13.722;2023-03-16T02:54:17;100556.78;;;-0.54;81.29
76448;BME280;65284;51.040;13.722;2023-03-16T02:56:44;100557.03;;;-0.59;81.52
76448;BME280;65284;51.040;13.722;2023-03-16T02:59:10;100556.13;;;-0.58;81.33
76448;BME280;65284;51.040;13.722;2023-03-16T03:01:37;100553.97;;;-0.67;81.76
76448;BME280;65284;51.040;13.722;2023-03-16T03:04:04;100556.78;;;-0.72;81.97
76448;BME280;65284;51.040;13.722;2023-03-16T03:06:31;100553.50;;;-0.75;82.05
76448;BME280;65284;51.040;13.722;2023-03-16T03:08:59;100557.03;;;-0.76;82.26
76448;BME280;65284;51.040;13.722;2023-03-16T03:11:25;100555.63;;;-0.83;82.25
76448;BME280;65284;51.040;13.722;2023-03-16T03:13:53;100555.91;;;-0.89;82.85
76448;BME280;65284;51.040;13.722;2023-03-16T03:16:19;100559.59;;;-0.94;83.40
76448;BME280;65284;51.040;13.722;2023-03-16T03:18:47;100561.59;;;-0.99;83.16
76448;BME280;65284;51.040;13.722;2023-03-16T03:21:13;100561.25;;;-1.10;83.60
76448;BME280;65284;51.040;13.722;2023-03-16T03:23:40;100559.72;;;-1.14;84.12
76448;BME280;65284;51.040;13.722;2023-03-16T03:26:06;100574.56;;;-1.16;84.09
76448;BME280;65284;51.040;13.722;2023-03-16T03:28:33;100573.03;;;-1.20;83.95
76448;BME280;65284;51.040;13.722;2023-03-16T03:30:59;100567.97;;;-1.23;84.63
76448;BME280;65284;51.040;13.722;2023-03-16T03:33:27;100569.59;;;-1.21;84.27
76448;BME280;65284;51.040;13.722;2023-03-16T03:35:57;100573.47;;;-1.29;84.81
76448;BME280;65284;51.040;13.722;2023-03-16T03:38:25;100572.53;;;-1.28;84.31
76448;BME280;65284;51.040;13.722;2023-03-16T03:40:52;100575.44;;;-1.34;84.39
76448;BME280;65284;51.040;13.722;2023-03-16T03:43:19;100578.97;;;-1.35;84.75
76448;BME280;65284;51.040;13.722;2023-03-16T03:45:46;100581.84;;;-1.42;84.78
76448;BME280;65284;51.040;13.722;2023-03-16T03:48:12;100588.66;;;-1.39;84.57
76448;BME280;65284;51.040;13.722;2023-03-16T03:50:39;100581.91;;;-1.43;84.75
76448;BME280;65284;51.040;13.722;2023-03-16T03:53:06;100580.22;;;-1.44;84.99
76448;BME280;65284;51.040;13.722;2023-03-16T03:55:32;100588.34;;;-1.50;85.19
76448;BME280;65284;51.040;13.722;2023-03-16T03:57:59;100583.25;;;-1.53;85.19
76448;BME280;65284;51.040;13.722;2023-03-16T04:00:26;100591.00;;;-1.52;85.06
76448;BME280;65284;51.040;13.722;2023-03-16T04:02:52;100584.53;;;-1.62;85.13
76448;BME280;65284;51.040;13.722;2023-03-16T04:05:19;100580.81;;;-1.56;84.99
76448;BME280;65284;51.040;13.722;2023-03-16T04:07:45;100582.53;;;-1.57;84.72
76448;BME280;65284;51.040;13.722;2023-03-16T04:10:11;100582.63;;;-1.58;85.10
76448;BME280;65284;51.040;13.722;2023-03-16T04:12:38;100585.28;;;-1.60;85.16
76448;BME280;65284;51.040;13.722;2023-03-16T04:15:05;100588.66;;;-1.58;85.24
76448;BME280;65284;51.040;13.722;2023-03-16T04:17:31;100591.34;;;-1.59;85.05
76448;BME280;65284;51.040;13.722;2023-03-16T04:19:59;100589.09;;;-1.67;85.43
76448;BME280;65284;51.040;13.722;2023-03-16T04:22:27;100585.84;;;-1.72;85.68
76448;BME280;65284;51.040;13.722;2023-03-16T04:24:56;100591.97;;;-1.73;85.60
76448;BME280;65284;51.040;13.722;2023-03-16T04:27:22;100590.06;;;-1.70;85.44
76448;BME280;65284;51.040;13.722;2023-03-16T04:29:49;100587.47;;;-1.70;85.66
76448;BME280;65284;51.040;13.722;2023-03-16T04:32:15;100586.91;;;-1.76;85.32
76448;BME280;65284;51.040;13.722;2023-03-16T04:34:41;100591.03;;;-1.72;85.36
76448;BME280;65284;51.040;13.722;2023-03-16T04:37:09;100587.16;;;-1.83;85.41
76448;BME280;65284;51.040;13.722;2023-03-16T04:39:35;100584.56;;;-1.83;86.18
76448;BME280;65284;51.040;13.722;2023-03-16T04:42:01;100589.78;;;-1.83;85.90
76448;BME280;65284;51.040;13.722;2023-03-16T04:44:28;100584.56;;;-1.83;85.59
76448;BME280;65284;51.040;13.722;2023-03-16T04:46:54;100581.31;;;-1.88;85.68
76448;BME280;65284;51.040;13.722;2023-03-16T04:49:21;100588.19;;;-1.87;85.88
76448;BME280;65284;51.040;13.722;2023-03-16T04:51:47;100576.09;;;-1.88;86.34
76448;BME280;65284;51.040;13.722;2023-03-16T04:54:13;100577.91;;;-1.90;85.74
76448;BME280;65284;51.040;13.722;2023-03-16T04:56:40;100584.00;;;-1.89;85.85
76448;BME280;65284;51.040;13.722;2023-03-16T04:59:07;100579.91;;;-1.95;86.02
76448;BME280;65284;51.040;13.722;2023-03-16T05:01:33;100580.78;;;-1.96;86.42
76448;BME280;65284;51.040;13.722;2023-03-16T05:03:59;100580.19;;;-2.01;86.35
76448;BME280;65284;51.040;13.722;2023-03-16T05:06:28;100578.59;;;-2.05;85.99
76448;BME280;65284;51.040;13.722;2023-03-16T05:08:54;100580.31;;;-2.04;86.28
76448;BME280;65284;51.040;13.722;2023-03-16T05:11:20;100583.66;;;-2.02;86.50
76448;BME280;65284;51.040;13.722;2023-03-16T05:13:47;100585.25;;;-1.98;86.09
76448;BME280;65284;51.040;13.722;2023-03-16T05:16:13;100586.66;;;-1.91;86.92
76448;BME280;65284;51.040;13.722;2023-03-16T05:18:40;100584.75;;;-1.87;87.31
76448;BME280;65284;51.040;13.722;2023-03-16T05:21:06;100583.59;;;-1.61;86.56
76448;BME280;65284;51.040;13.722;2023-03-16T05:23:33;100585.13;;;-1.76;86.47
76448;BME280;65284;51.040;13.722;2023-03-16T05:25:59;100582.09;;;-1.86;86.54
76448;BME280;65284;51.040;13.722;2023-03-16T05:28:26;100591.44;;;-1.81;86.31
76448;BME280;65284;51.040;13.722;2023-03-16T05:30:53;100595.13;;;-1.86;85.92
76448;BME280;65284;51.040;13.722;2023-03-16T05:33:20;100593.53;;;-1.90;85.96
76448;BME280;65284;51.040;13.722;2023-03-16T05:35:46;100598.59;;;-1.87;85.72
76448;BME280;65284;51.040;13.722;2023-03-16T05:38:13;100598.59;;;-1.87;86.11
76448;BME280;65284;51.040;13.722;2023-03-16T05:40:40;100605.44;;;-1.84;86.28
76448;BME280;65284;51.040;13.722;2023-03-16T05:43:07;100606.94;;;-1.78;85.82
76448;BME280;65284;51.040;13.722;2023-03-16T05:45:33;100602.78;;;-1.83;85.98
76448;BME280;65284;51.040;13.722;2023-03-16T05:48:00;100598.34;;;-1.80;86.00
76448;BME280;65284;51.040;13.722;2023-03-16T05:50:26;100608.66;;;-1.77;85.84
76448;BME280;65284;51.040;13.722;2023-03-16T05:52:53;100610.31;;;-1.76;86.11
76448;BME280;65284;51.040;13.722;2023-03-16T05:55:20;100615.53;;;-1.76;86.08
76448;BME280;65284;51.040;13.722;2023-03-16T05:57:46;100615.41;;;-1.73;86.07
76448;BME280;65284;51.040;13.722;2023-03-16T06:00:13;100615.13;;;-1.67;85.48
76448;BME280;65284;51.040;13.722;2023-03-16T06:02:42;100611.72;;;-1.69;85.51
76448;BME280;65284;51.040;13.722;2023-03-16T06:05:09;100615.00;;;-1.64;85.22
76448;BME280;65284;51.040;13.722;2023-03-16T06:07:35;100622.09;;;-1.68;85.66
76448;BME280;65284;51.040;13.722;2023-03-16T06:10:03;100614.72;;;-1.39;85.38
76448;BME280;65284;51.040;13.722;2023-03-16T06:12:29;100619.22;;;-1.43;84.95
76448;BME280;65284;51.040;13.722;2023-03-16T06:14:56;100627.03;;;-1.43;84.69
76448;BME280;65284;51.040;13.722;2023-03-16T06:17:22;100617.81;;;-1.50;84.99
76448;BME280;65284;51.040;13.722;2023-03-16T06:19:49;100620.28;;;-1.47;85.32
76448;BME280;65284;51.040;13.722;2023-03-16T06:22:15;100621.22;;;-1.48;84.92
76448;BME280;65284;51.040;13.722;2023-03-16T06:24:43;100624.44;;;-1.43;85.11
76448;BME280;65284;51.040;13.722;2023-03-16T06:27:10;100620.78;;;-1.39;84.80
76448;BME280;65284;51.040;13.722;2023-03-16T06:29:36;100623.25;;;-1.35;85.10
76448;BME280;65284;51.040;13.722;2023-03-16T06:32:03;100630.94;;;-1.32;84.58
76448;BME280;65284;51.040;13.722;2023-03-16T06:34:30;100624.50;;;-1.25;84.26
76448;BME280;65284;51.040;13.722;2023-03-16T06:36:57;100627.91;;;-1.23;84.57
76448;BME280;65284;51.040;13.722;2023-03-16T06:39:24;100624.09;;;-1.16;84.57
76448;BME280;65284;51.040;13.722;2023-03-16T06:41:51;100629.78;;;-1.08;83.83
76448;BME280;65284;51.040;13.722;2023-03-16T06:44:18;100626.34;;;-1.08;83.63
76448;BME280;65284;51.040;13.722;2023-03-16T06:46:44;100619.22;;;-1.05;83.70
76448;BME280;65284;51.040;13.722;2023-03-16T06:49:11;100630.94;;;-0.95;83.32
76448;BME280;65284;51.040;13.722;2023-03-16T06:51:37;100623.03;;;-0.93;84.01
76448;BME280;65284;51.040;13.722;2023-03-16T06:54:03;100624.56;;;-0.89;83.37
76448;BME280;65284;51.040;13.722;2023-03-16T06:56:30;100632.16;;;-0.84;83.24
76448;BME280;65284;51.040;13.722;2023-03-16T06:58:57;100637.88;;;-0.76;83.10
76448;BME280;65284;51.040;13.722;2023-03-16T07:01:23;100635.13;;;-0.73;82.55
76448;BME280;65284;51.040;13.722;2023-03-16T07:03:50;100633.88;;;-0.66;82.36
76448;BME280;65284;51.040;13.722;2023-03-16T07:06:16;100638.22;;;-0.65;82.33
76448;BME280;65284;51.040;13.722;2023-03-16T07:08:43;100637.91;;;-0.59;82.20
76448;BME280;65284;51.040;13.722;2023-03-16T07:11:10;100636.88;;;-0.56;82.16
76448;BME280;65284;51.040;13.722;2023-03-16T07:13:36;100639.00;;;-0.46;82.10
76448;BME280;65284;51.040;13.722;2023-03-16T07:16:03;100640.41;;;-0.38;81.63
76448;BME280;65284;51.040;13.722;2023-03-16T07:18:30;100635.88;;;-0.35;81.17
76448;BME280;65284;51.040;13.722;2023-03-16T07:20:56;100645.31;;;-0.32;81.23
76448;BME280;65284;51.040;13.722;2023-03-16T07:23:23;100643.44;;;-0.30;81.18
76448;BME280;65284;51.040;13.722;2023-03-16T07:25:51;100650.22;;;-0.26;81.12
76448;BME280;65284;51.040;13.722;2023-03-16T07:28:18;100641.00;;;-0.16;81.15
76448;BME280;65284;51.040;13.722;2023-03-16T07:30:45;100647.84;;;0.04;80.64
76448;BME280;65284;51.040;13.722;2023-03-16T07:33:29;100653.75;;;0.08;80.30
76448;BME280;65284;51.040;13.722;2023-03-16T07:35:57;100648.34;;;0.11;79.58
76448;BME280;65284;51.040;13.722;2023-03-16T07:38:24;100644.69;;;0.15;78.98
76448;BME280;65284;51.040;13.722;2023-03-16T07:40:50;100639.31;;;0.18;79.11
76448;BME280;65284;51.040;13.722;2023-03-16T07:43:17;100642.50;;;0.23;78.90
76448;BME280;65284;51.040;13.722;2023-03-16T07:45:48;100630.88;;;0.29;78.82
76448;BME280;65284;51.040;13.722;2023-03-16T07:48:15;100631.41;;;0.35;78.56
76448;BME280;65284;51.040;13.722;2023-03-16T07:50:42;100636.19;;;0.44;78.39
76448;BME280;65284;51.040;13.722;2023-03-16T07:53:09;100633.97;;;0.53;77.75
76448;BME280;65284;51.040;13.722;2023-03-16T07:55:35;100635.69;;;0.54;78.07
76448;BME280;65284;51.040;13.722;2023-03-16T07:58:03;100636.09;;;0.62;78.96
76448;BME280;65284;51.040;13.722;2023-03-16T08:00:32;100631.91;;;0.75;78.34
76448;BME280;65284;51.040;13.722;2023-03-16T08:02:59;100637.75;;;0.80;78.57
76448;BME280;65284;51.040;13.722;2023-03-16T08:05:25;100640.25;;;0.82;77.99
76448;BME280;65284;51.040;13.722;2023-03-16T08:07:53;100654.16;;;0.82;77.49
76448;BME280;65284;51.040;13.722;2023-03-16T08:10:21;100640.94;;;0.85;77.29
76448;BME280;65284;51.040;13.722;2023-03-16T08:12:48;100646.88;;;0.89;77.03
76448;BME280;65284;51.040;13.722;2023-03-16T08:15:14;100641.38;;;0.94;77.00
76448;BME280;65284;51.040;13.722;2023-03-16T08:17:41;100648.13;;;0.98;76.96
76448;BME280;65284;51.040;13.722;2023-03-16T08:20:08;100640.88;;;1.03;76.88
76448;BME280;65284;51.040;13.722;2023-03-16T08:22:38;100647.19;;;1.14;76.62
76448;BME280;65284;51.040;13.722;2023-03-16T08:25:06;100647.69;;;1.21;76.13
76448;BME280;65284;51.040;13.722;2023-03-16T08:27:36;100643.97;;;1.25;75.78
76448;BME280;65284;51.040;13.722;2023-03-16T08:30:05;100651.72;;;1.27;75.50
76448;BME280;65284;51.040;13.722;2023-03-16T08:32:32;100658.16;;;1.37;75.80
76448;BME280;65284;51.040;13.722;2023-03-16T08:34:59;100645.31;;;1.48;75.23
76448;BME280;65284;51.040;13.722;2023-03-16T08:37:25;100651.47;;;1.47;74.95
76448;BME280;65284;51.040;13.722;2023-03-16T08:39:52;100658.78;;;1.56;74.41
76448;BME280;65284;51.040;13.722;2023-03-16T08:42:19;100659.47;;;1.60;74.46
76448;BME280;65284;51.040;13.722;2023-03-16T08:44:46;100652.94;;;1.67;74.22
76448;BME280;65284;51.040;13.722;2023-03-16T08:47:12;100649.22;;;1.71;74.35
76448;BME280;65284;51.040;13.722;2023-03-16T08:49:40;100645.31;;;1.78;74.35
76448;BME280;65284;51.040;13.722;2023-03-16T08:52:06;100647.59;;;1.85;74.06
76448;BME280;65284;51.040;13.722;2023-03-16T08:54:35;100648.91;;;1.92;73.45
76448;BME280;65284;51.040;13.722;2023-03-16T08:57:02;100646.69;;;2.00;73.91
76448;BME280;65284;51.040;13.722;2023-03-16T08:59:28;100658.50;;;2.07;74.22
76448;BME280;65284;51.040;13.722;2023-03-16T09:01:56;100650.16;;;2.15;73.33
76448;BME280;65284;51.040;13.722;2023-03-16T09:04:23;100654.38;;;2.17;72.89
76448;BME280;65284;51.040;13.722;2023-03-16T09:06:49;100647.09;;;2.22;72.68
76448;BME280;65284;51.040;13.722;2023-03-16T09:09:35;100650.97;;;2.31;71.96
76448;BME280;65284;51.040;13.722;2023-03-16T09:12:02;100647.13;;;2.37;71.67
76448;BME280;65284;51.040;13.722;2023-03-16T09:14:29;100649.75;;;2.37;71.42
76448;BME280;65284;51.040;13.722;2023-03-16T09:16:56;100651.88;;;2.44;70.73
76448;BME280;65284;51.040;13.722;2023-03-16T09:19:22;100648.31;;;2.45;70.92
76448;BME280;65284;51.040;13.722;2023-03-16T09:21:50;100659.94;;;2.56;70.02
76448;BME280;65284;51.040;13.722;2023-03-16T09:24:16;100652.53;;;2.62;70.06
76448;BME280;65284;51.040;13.722;2023-03-16T09:26:42;100658.72;;;2.76;69.31
76448;BME280;65284;51.040;13.722;2023-03-16T09:29:09;100655.34;;;2.88;69.31
76448;BME280;65284;51.040;13.722;2023-03-16T09:31:35;100657.00;;;2.89;69.61
76448;BME280;65284;51.040;13.722;2023-03-16T09:34:02;100649.50;;;2.97;67.96
76448;BME280;65284;51.040;13.722;2023-03-16T09:36:30;100647.44;;;3.02;67.41
76448;BME280;65284;51.040;13.722;2023-03-16T09:38:56;100660.25;;;3.07;67.71
76448;BME280;65284;51.040;13.722;2023-03-16T09:41:40;100655.66;;;3.10;68.16
76448;BME280;65284;51.040;13.722;2023-03-16T09:46:58;100649.94;;;3.45;67.18
76448;BME280;65284;51.040;13.722;2023-03-16T09:49:32;100644.69;;;3.45;67.80
76448;BME280;65284;51.040;13.722;2023-03-16T09:52:24;100649.75;;;3.48;67.69
76448;BME280;65284;51.040;13.722;2023-03-16T09:54:59;100646.00;;;3.52;67.25
76448;BME280;65284;51.040;13.722;2023-03-16T09:57:32;100638.44;;;3.60;66.36
76448;BME280;65284;51.040;13.722;2023-03-16T10:00:17;100634.69;;;3.64;66.07
76448;BME280;65284;51.040;13.722;2023-03-16T10:03:00;100635.59;;;3.63;65.86
76448;BME280;65284;51.040;13.722;2023-03-16T10:05:31;100639.94;;;3.64;65.62
76448;BME280;65284;51.040;13.722;2023-03-16T10:08:20;100636.16;;;3.69;66.00
76448;BME280;65284;51.040;13.722;2023-03-16T10:11:23;100638.28;;;3.76;65.16
76448;BME280;65284;51.040;13.722;2023-03-16T10:14:07;100640.78;;;3.78;64.91
76448;BME280;65284;51.040;13.722;2023-03-16T10:16:40;100632.00;;;3.79;64.67
76448;BME280;65284;51.040;13.722;2023-03-16T10:19:40;100633.25;;;3.86;64.49
76448;BME280;65284;51.040;13.722;2023-03-16T10:22:22;100630.97;;;3.94;63.29
76448;BME280;65284;51.040;13.722;2023-03-16T10:27:42;100635.25;;;4.08;62.73
76448;BME280;65284;51.040;13.722;2023-03-16T10:30:25;100628.66;;;4.15;62.27
76448;BME280;65284;51.040;13.722;2023-03-16T10:32:55;100630.97;;;4.20;62.70
76448;BME280;65284;51.040;13.722;2023-03-16T10:35:45;100630.34;;;4.29;60.84
76448;BME280;65284;51.040;13.722;2023-03-16T10:40:56;100631.06;;;4.56;60.83
76448;BME280;65284;51.040;13.722;2023-03-16T10:43:27;100630.53;;;4.51;61.69
76448;BME280;65284;51.040;13.722;2023-03-16T10:45:57;100624.41;;;4.64;60.60
76448;BME280;65284;51.040;13.722;2023-03-16T10:48:25;100621.56;;;4.67;59.38
76448;BME280;65284;51.040;13.722;2023-03-16T10:50:55;100620.44;;;4.71;59.66
76448;BME280;65284;51.040;13.722;2023-03-16T10:53:26;100615.56;;;4.77;59.39
76448;BME280;65284;51.040;13.722;2023-03-16T10:56:08;100624.81;;;4.83;59.04
76448;BME280;65284;51.040;13.722;2023-03-16T10:58:39;100621.44;;;4.81;59.57
76448;BME280;65284;51.040;13.722;2023-03-16T11:01:16;100619.56;;;4.83;59.31
76448;BME280;65284;51.040;13.722;2023-03-16T11:03:48;100612.88;;;4.90;58.42
76448;BME280;65284;51.040;13.722;2023-03-16T11:06:20;100617.00;;;4.94;58.20
76448;BME280;65284;51.040;13.722;2023-03-16T11:08:48;100615.53;;;4.90;58.03
76448;BME280;65284;51.040;13.722;2023-03-16T11:11:26;100610.69;;;4.84;57.99
76448;BME280;65284;51.040;13.722;2023-03-16T11:13:59;100610.53;;;4.74;57.63
76448;BME280;65284;51.040;13.722;2023-03-16T11:16:36;100605.69;;;4.68;57.10
76448;BME280;65284;51.040;13.722;2023-03-16T11:19:23;100600.16;;;4.84;56.39
76448;BME280;65284;51.040;13.722;2023-03-16T11:21:57;100595.75;;;4.85;56.91
76448;BME280;65284;51.040;13.722;2023-03-16T11:24:36;100585.97;;;4.87;55.90
76448;BME280;65284;51.040;13.722;2023-03-16T11:27:16;100581.91;;;4.94;55.62
76448;BME280;65284;51.040;13.722;2023-03-16T11:32:51;100575.44;;;5.11;56.13
76448;BME280;65284;51.040;13.722;2023-03-16T11:35:23;100564.22;;;5.20;55.58
76448;BME280;65284;51.040;13.722;2023-03-16T11:38:14;100569.84;;;5.39;54.99
76448;BME280;65284;51.040;13.722;2023-03-16T11:40:45;100569.84;;;5.39;55.05
76448;BME280;65284;51.040;13.722;2023-03-16T11:43:49;100569.84;;;5.39;53.60
76448;BME280;65284;51.040;13.722;2023-03-16T11:48:59;100560.28;;;5.50;52.67
76448;BME280;65284;51.040;13.722;2023-03-16T11:51:44;100554.25;;;5.36;53.37
76448;BME280;65284;51.040;13.722;2023-03-16T11:56:44;100562.69;;;5.53;51.30
76448;BME280;65284;51.040;13.722;2023-03-16T11:59:32;100549.28;;;5.44;52.14
76448;BME280;65284;51.040;13.722;2023-03-16T12:02:25;100549.28;;;5.56;52.60
76448;BME280;65284;51.040;13.722;2023-03-16T12:05:05;100549.91;;;5.59;52.65
76448;BME280;65284;51.040;13.722;2023-03-16T12:10:28;100548.06;;;5.48;52.86
76448;BME280;65284;51.040;13.722;2023-03-16T12:13:21;100535.13;;;5.45;52.25
76448;BME280;65284;51.040;13.722;2023-03-16T12:15:59;100538.50;;;5.59;53.10
76448;BME280;65284;51.040;13.722;2023-03-16T12:18:46;100529.84;;;5.92;50.86
76448;BME280;65284;51.040;13.722;2023-03-16T12:21:38;100526.19;;;5.95;50.50
76448;BME280;65284;51.040;13.722;2023-03-16T12:24:12;100527.13;;;5.93;51.01
76448;BME280;65284;51.040;13.722;2023-03-16T12:26:41;100522.88;;;5.80;51.89
76448;BME280;65284;51.040;13.722;2023-03-16T12:29:20;100520.84;;;5.83;52.13
76448;BME280;65284;51.040;13.722;2023-03-16T12:31:55;100520.84;;;5.83;52.33
76448;BME280;65284;51.040;13.722;2023-03-16T12:34:30;100514.50;;;5.86;52.15
76448;BME280;65284;51.040;13.722;2023-03-16T12:37:08;100507.44;;;5.86;52.17
76448;BME280;65284;51.040;13.722;2023-03-16T12:40:06;100518.63;;;6.01;51.43
76448;BME280;65284;51.040;13.722;2023-03-16T12:45:37;100508.69;;;6.05;50.79
76448;BME280;65284;51.040;13.722;2023-03-16T12:48:14;100510.81;;;6.00;51.59
76448;BME280;65284;51.040;13.722;2023-03-16T12:50:53;100499.56;;;6.20;52.27
76448;BME280;65284;51.040;13.722;2023-03-16T12:53:39;100502.91;;;6.11;50.29
76448;BME280;65284;51.040;13.722;2023-03-16T12:56:07;100496.91;;;6.20;48.56
76448;BME280;65284;51.040;13.722;2023-03-16T12:58:37;100493.94;;;6.25;48.50
76448;BME280;65284;51.040;13.722;2023-03-16T13:01:07;100501.72;;;6.26;48.35
76448;BME280;65284;51.040;13.722;2023-03-16T13:03:35;100489.34;;;6.27;48.82
76448;BME280;65284;51.040;13.722;2023-03-16T13:06:02;100490.66;;;6.32;48.24
76448;BME280;65284;51.040;13.722;2023-03-16T13:08:40;100491.16;;;6.37;48.09
76448;BME280;65284;51.040;13.722;2023-03-16T13:11:09;100486.22;;;6.33;48.20
76448;BME280;65284;51.040;13.722;2023-03-16T13:16:31;100478.69;;;6.51;46.01
76448;BME280;65284;51.040;13.722;2023-03-16T13:18:58;100491.88;;;6.51;45.99
76448;BME280;65284;51.040;13.722;2023-03-16T13:23:56;100471.13;;;6.46;45.48
76448;BME280;65284;51.040;13.722;2023-03-16T13:26:45;100472.19;;;6.55;44.50
76448;BME280;65284;51.040;13.722;2023-03-16T13:29:25;100462.84;;;6.51;45.22